Time;durP1;ratioP1;P1;durP2;ratioP2;P2;SDS_P1;SDS_P2;PMS_P1;PMS_P2;Temp;Humidity;BMP_temperature;BMP_pressure;BME280_temperature;BME280_humidity;BME280_pressure;Samples;Min_cycle;Max_cycle;Signal;HPM_P1;HPM_P2
2021/01/15 00:02:44;;;;;;;15.13;10.57;;;;;;;3.76;57.47;98060.25;8366306;28;20211;-72
2021/01/15 00:06:47;;;;;;;12.77;9.67;;;;;;;3.74;57.50;98062.00;8366106;28;20208;-72
2021/01/15 00:10:48;;;;;;;14.90;10.03;;;;;;;3.78;57.03;98066.22;8365372;28;20214;-72
2021/01/15 00:14:50;;;;;;;22.83;12.50;;;;;;;3.76;56.78;98060.25;8365212;28;20643;-73
2021/01/15 00:18:53;;;;;;;17.27;9.73;;;;;;;3.67;57.35;98061.22;8365218;28;20583;-73
2021/01/15 00:22:55;;;;;;;11.07;7.63;;;;;;;3.73;56.73;98058.56;8365568;28;20249;-73
2021/01/15 00:26:57;;;;;;;9.83;7.37;;;;;;;3.61;56.81;98053.66;8365034;28;20215;-74
2021/01/15 00:30:59;;;;;;;10.47;7.30;;;;;;;3.56;56.63;98065.66;8364866;28;20239;-74
2021/01/15 00:35:01;;;;;;;9.77;6.43;;;;;;;3.47;56.62;98064.09;8364613;28;20614;-74
2021/01/15 00:39:05;;;;;;;10.37;6.73;;;;;;;3.58;56.97;98059.69;8364891;28;20231;-73
2021/01/15 00:43:07;;;;;;;11.67;6.80;;;;;;;3.33;56.37;98061.72;8364430;28;20231;-71
2021/01/15 00:47:09;;;;;;;8.57;7.13;;;;;;;3.38;56.62;98065.06;8363998;28;20254;-72
2021/01/15 00:51:11;;;;;;;9.30;6.60;;;;;;;3.36;56.76;98066.81;8364339;28;20226;-71
2021/01/15 00:55:14;;;;;;;8.47;6.40;;;;;;;3.34;56.99;98068.53;8363958;28;20196;-72
2021/01/15 00:59:17;;;;;;;8.80;6.87;;;;;;;3.04;56.65;98065.50;8364901;28;20552;-73
2021/01/15 01:03:19;;;;;;;8.30;6.47;;;;;;;3.15;56.99;98067.09;8364076;28;20210;-72
2021/01/15 01:07:20;;;;;;;8.97;6.07;;;;;;;3.16;56.91;98066.22;8363581;28;20504;-73
2021/01/15 01:11:24;;;;;;;7.90;6.50;;;;;;;3.02;56.71;98066.41;8364063;28;20200;-73
2021/01/15 01:15:26;;;;;;;8.10;6.83;;;;;;;2.93;56.90;98075.91;8363592;28;20299;-73
2021/01/15 01:19:28;;;;;;;8.40;6.63;;;;;;;2.93;57.18;98083.56;8363169;28;20701;-73
2021/01/15 01:23:29;;;;;;;8.63;6.80;;;;;;;2.96;56.55;98086.94;8363213;28;20203;-73
2021/01/15 01:27:33;;;;;;;9.30;6.70;;;;;;;2.79;56.76;98087.13;8362595;28;20215;-73
2021/01/15 01:31:34;;;;;;;8.37;6.40;;;;;;;2.93;57.13;98095.50;8362151;28;20277;-74
2021/01/15 01:35:36;;;;;;;9.50;7.23;;;;;;;2.75;56.77;98094.00;8362892;28;20774;-75
2021/01/15 01:39:38;;;;;;;7.70;6.47;;;;;;;2.67;56.95;98086.41;8362282;28;20208;-73
2021/01/15 01:43:40;;;;;;;8.73;6.77;;;;;;;2.85;56.17;98090.47;8363516;28;20252;-72
2021/01/15 01:47:42;;;;;;;8.03;6.73;;;;;;;2.73;56.61;98085.50;8362096;28;20215;-74
2021/01/15 01:51:45;;;;;;;10.70;8.73;;;;;;;2.73;56.42;98100.84;8362508;28;20203;-72
2021/01/15 01:55:48;;;;;;;10.60;7.30;;;;;;;2.65;56.30;98094.97;8362116;28;20538;-74
2021/01/15 01:59:51;;;;;;;9.23;7.93;;;;;;;2.57;56.53;98084.81;8362775;28;20222;-75
2021/01/15 02:03:59;;;;;;;9.27;7.70;;;;;;;2.76;55.75;98088.03;8362559;28;20211;-74
2021/01/15 02:08:02;;;;;;;9.53;7.97;;;;;;;2.72;56.27;98088.91;8362613;28;20204;-75
2021/01/15 02:12:11;;;;;;;9.07;7.97;;;;;;;2.47;56.40;98089.16;8361588;28;20219;-74
2021/01/15 02:16:18;;;;;;;11.13;8.07;;;;;;;2.41;56.05;98099.44;8362461;28;20212;-75
2021/01/15 02:20:57;;;;;;;9.87;7.53;;;;;;;2.54;56.78;98103.59;8361848;28;20199;-75
2021/01/15 02:25:24;;;;;;;10.67;7.87;;;;;;;2.50;55.76;98099.38;8361979;28;20659;-75
2021/01/15 02:29:25;;;;;;;9.53;7.47;;;;;;;2.58;56.16;98101.84;8328808;28;20207;-74
2021/01/15 02:33:39;;;;;;;10.03;7.73;;;;;;;2.44;56.50;98107.09;8361788;28;20235;-74
2021/01/15 02:37:49;;;;;;;10.20;7.60;;;;;;;2.41;56.79;98107.13;8361575;28;20208;-74
2021/01/15 02:41:52;;;;;;;10.83;8.10;;;;;;;2.39;56.16;98113.97;8365414;28;20207;-74
2021/01/15 02:45:55;;;;;;;13.17;8.47;;;;;;;2.41;56.41;98119.06;8367503;28;20199;-75
2021/01/15 02:49:58;;;;;;;10.23;8.47;;;;;;;2.34;56.41;98118.25;8368047;28;20211;-75
2021/01/15 02:54:00;;;;;;;9.40;8.50;;;;;;;2.40;56.21;98120.78;8367440;28;20204;-75
2021/01/15 02:58:02;;;;;;;9.57;8.07;;;;;;;2.28;55.90;98131.09;8367005;28;20223;-74
2021/01/15 03:02:08;;;;;;;9.47;7.83;;;;;;;2.28;55.78;98126.81;8367935;28;20215;-74
2021/01/15 03:06:13;;;;;;;8.97;7.70;;;;;;;2.33;55.57;98130.19;8367157;28;20216;-73
2021/01/15 03:10:15;;;;;;;10.07;8.60;;;;;;;2.31;55.72;98131.91;8367007;28;20196;-74
2021/01/15 03:14:17;;;;;;;9.43;8.43;;;;;;;2.28;55.57;98126.81;8366734;28;20207;-75
2021/01/15 03:18:22;;;;;;;9.97;8.07;;;;;;;2.34;55.50;98133.59;8366501;28;20709;-74
2021/01/15 03:22:26;;;;;;;9.50;7.70;;;;;;;2.24;55.47;98143.03;8366340;28;20510;-75
2021/01/15 03:26:28;;;;;;;9.33;8.30;;;;;;;2.16;55.79;98142.28;8367141;28;20638;-74
2021/01/15 03:30:31;;;;;;;9.43;8.43;;;;;;;2.06;55.50;98146.59;8366745;28;20212;-75
2021/01/15 03:34:32;;;;;;;9.87;8.70;;;;;;;1.97;55.40;98139.00;8366815;28;20208;-75
2021/01/15 03:38:35;;;;;;;9.50;8.50;;;;;;;2.05;55.80;98144.91;8366523;28;20230;-75
2021/01/15 03:42:37;;;;;;;9.90;8.90;;;;;;;2.01;55.73;98145.78;8367200;28;20257;-75
2021/01/15 03:46:38;;;;;;;10.17;8.87;;;;;;;1.94;55.66;98147.53;8366824;28;20629;-75
2021/01/15 03:50:41;;;;;;;10.77;9.33;;;;;;;1.88;55.86;98145.00;8366019;28;20235;-74
2021/01/15 03:54:43;;;;;;;11.93;9.40;;;;;;;1.84;55.58;98148.44;8365270;28;20215;-74
2021/01/15 03:58:45;;;;;;;11.27;9.60;;;;;;;2.02;55.38;98151.72;8365679;28;20323;-75
2021/01/15 04:02:47;;;;;;;10.60;9.50;;;;;;;1.87;54.98;98155.25;8366001;28;20245;-74
2021/01/15 04:06:48;;;;;;;9.90;8.90;;;;;;;1.78;55.41;98156.16;8366115;28;20228;-74
2021/01/15 04:10:51;;;;;;;9.83;8.83;;;;;;;1.67;55.25;98160.47;8364805;28;20278;-75
2021/01/15 04:14:56;;;;;;;10.10;9.10;;;;;;;1.68;55.09;98160.47;8365508;28;20707;-75
2021/01/15 04:18:59;;;;;;;10.73;9.00;;;;;;;1.53;55.06;98169.06;8364492;28;20311;-74
2021/01/15 04:23:00;;;;;;;10.43;9.33;;;;;;;1.60;54.38;98171.56;8364575;28;20515;-74
2021/01/15 04:27:04;;;;;;;9.27;8.27;;;;;;;1.46;55.06;98179.31;8365131;28;20294;-75
2021/01/15 04:31:06;;;;;;;9.53;8.53;;;;;;;1.53;54.86;98183.53;8364410;28;20239;-74
2021/01/15 04:35:08;;;;;;;11.73;9.00;;;;;;;1.44;55.13;98178.47;8364921;28;20249;-75
2021/01/15 04:39:10;;;;;;;10.20;8.90;;;;;;;1.54;54.95;98182.66;8364038;28;20246;-75
2021/01/15 04:43:15;;;;;;;10.20;9.07;;;;;;;1.51;54.82;98186.09;8364032;28;20200;-74
2021/01/15 04:47:17;;;;;;;12.20;9.63;;;;;;;1.50;54.79;98179.28;8363537;28;20555;-74
2021/01/15 04:51:21;;;;;;;9.73;8.70;;;;;;;1.50;55.66;98181.81;8363903;28;20223;-75
2021/01/15 04:55:24;;;;;;;10.73;9.40;;;;;;;1.49;55.36;98189.50;8364068;28;20203;-74
2021/01/15 04:59:29;;;;;;;10.43;9.33;;;;;;;1.60;55.18;98192.00;8363537;28;20227;-75
2021/01/15 05:03:32;;;;;;;11.60;9.47;;;;;;;1.64;55.76;98198.78;8363410;28;20647;-75
2021/01/15 05:07:35;;;;;;;11.80;9.50;;;;;;;1.70;55.91;98208.97;8363973;28;20630;-75
2021/01/15 05:11:37;;;;;;;12.27;9.83;;;;;;;1.66;55.93;98209.84;8363176;28;20195;-74
2021/01/15 05:15:42;;;;;;;13.40;10.63;;;;;;;1.70;55.70;98203.88;8362786;28;20211;-74
2021/01/15 05:19:44;;;;;;;12.97;10.37;;;;;;;1.69;56.06;98205.56;8363116;28;20224;-75
2021/01/15 05:23:46;;;;;;;13.03;10.90;;;;;;;1.76;56.01;98214.88;8363074;28;20317;-75
2021/01/15 05:27:48;;;;;;;12.57;10.30;;;;;;;1.72;55.65;98215.75;8362628;28;20230;-75
2021/01/15 05:31:52;;;;;;;13.10;10.67;;;;;;;1.68;55.94;98218.34;8363027;28;20239;-74
2021/01/15 05:35:54;;;;;;;11.93;9.77;;;;;;;1.61;55.74;98221.78;8362761;28;20203;-74
2021/01/15 05:39:59;;;;;;;12.13;9.83;;;;;;;1.70;55.24;98226.84;8362461;28;20270;-74
2021/01/15 05:44:00;;;;;;;12.37;10.47;;;;;;;1.55;55.47;98232.88;8362456;28;20204;-74
2021/01/15 05:48:06;;;;;;;10.60;9.37;;;;;;;1.59;55.64;98239.66;8362513;28;20212;-75
2021/01/15 05:52:08;;;;;;;11.63;10.13;;;;;;;1.66;55.22;98250.72;8362373;28;20200;-75
2021/01/15 05:56:10;;;;;;;12.33;10.33;;;;;;;1.49;55.02;98256.72;8362400;28;20275;-74
2021/01/15 06:00:32;;;;;;;13.33;10.60;;;;;;;1.53;55.54;98255.00;8361880;28;20207;-74
2021/01/15 06:04:36;;;;;;;11.97;10.57;;;;;;;1.58;55.85;98266.06;8362316;28;20649;-74
2021/01/15 06:08:44;;;;;;;12.30;10.67;;;;;;;1.63;55.41;98271.13;8361699;28;20713;-74
2021/01/15 06:12:45;;;;;;;12.17;10.53;;;;;;;1.53;55.39;98275.44;8362203;28;20275;-75
2021/01/15 06:16:47;;;;;;;12.10;10.53;;;;;;;1.48;55.70;98272.03;8361090;28;20269;-75
2021/01/15 06:20:50;;;;;;;14.00;10.60;;;;;;;1.52;55.92;98281.38;8361395;28;20204;-74
2021/01/15 06:24:58;;;;;;;12.67;10.87;;;;;;;1.53;55.59;98273.72;8361360;28;20207;-74
2021/01/15 06:29:05;;;;;;;12.57;11.13;;;;;;;1.46;56.01;98279.69;8361114;28;20203;-74
2021/01/15 06:33:08;;;;;;;14.13;10.90;;;;;;;1.57;55.60;98274.56;8361533;28;20315;-74
2021/01/15 06:37:12;;;;;;;11.73;10.50;;;;;;;1.62;55.86;98293.28;8361022;28;20653;-74
2021/01/15 06:41:17;;;;;;;12.10;9.87;;;;;;;1.61;56.08;98293.25;8361179;28;20204;-74
2021/01/15 06:45:18;;;;;;;11.37;9.97;;;;;;;1.71;55.28;98292.38;8360892;28;20634;-73
2021/01/15 06:49:29;;;;;;;12.80;10.40;;;;;;;1.65;55.30;98292.41;8361686;28;20203;-73
2021/01/15 06:53:33;;;;;;;11.77;10.57;;;;;;;1.39;55.69;98301.00;8361212;28;20204;-73
2021/01/15 06:57:36;;;;;;;13.77;10.30;;;;;;;1.62;55.68;98300.06;8361069;28;20239;-74
2021/01/15 07:01:40;;;;;;;14.27;11.40;;;;;;;1.64;55.87;98309.44;8360979;28;20196;-74
2021/01/15 07:05:44;;;;;;;13.37;11.50;;;;;;;1.64;55.75;98300.91;8361280;28;20249;-74
2021/01/15 07:09:47;;;;;;;14.33;11.57;;;;;;;1.66;56.48;98302.63;8356179;28;20204;-73
2021/01/15 07:13:53;;;;;;;12.40;11.10;;;;;;;1.73;55.84;98306.84;8325119;28;20236;-73
2021/01/15 07:17:59;;;;;;;14.00;11.67;;;;;;;1.71;56.25;98323.88;8324201;28;20235;-73
2021/01/15 07:22:09;;;;;;;13.97;11.13;;;;;;;1.79;55.96;98325.53;8324806;28;20198;-72
2021/01/15 07:26:13;;;;;;;11.60;10.43;;;;;;;1.81;55.94;98324.69;8325565;28;20508;-72
2021/01/15 07:30:20;;;;;;;15.50;11.00;;;;;;;1.88;55.95;98328.91;8326401;28;20208;-73
2021/01/15 07:34:23;;;;;;;12.17;10.70;;;;;;;1.93;55.90;98328.91;8330768;28;20641;-73
2021/01/15 07:38:25;;;;;;;12.80;10.43;;;;;;;1.95;56.17;98332.31;8331914;28;20576;-73
2021/01/15 07:42:47;;;;;;;11.57;10.37;;;;;;;1.85;56.29;98344.25;8332407;28;20200;-73
2021/01/15 07:46:50;;;;;;;13.23;11.40;;;;;;;2.02;55.85;98353.53;8332393;28;20261;-73
2021/01/15 07:50:53;;;;;;;14.60;11.57;;;;;;;2.00;56.18;98353.56;8321152;28;20247;-73
2021/01/15 07:55:03;;;;;;;13.50;11.17;;;;;;;2.11;56.63;98359.50;8330893;28;20235;-74
2021/01/15 07:59:05;;;;;;;13.37;11.70;;;;;;;2.09;56.39;98370.56;8329471;28;20224;-73
2021/01/15 08:03:07;;;;;;;14.47;12.20;;;;;;;2.18;56.05;98372.25;8330807;28;20200;-74
2021/01/15 08:07:15;;;;;;;16.10;11.83;;;;;;;2.16;56.33;98369.69;8331640;28;20236;-74
2021/01/15 08:11:16;;;;;;;13.13;11.80;;;;;;;2.32;56.21;98375.56;8332111;28;20551;-74
2021/01/15 08:15:37;;;;;;;41.43;31.77;;;;;;;2.40;55.90;98386.63;8332348;28;20220;-74
2021/01/15 08:19:39;;;;;;;37.53;33.43;;;;;;;2.38;55.60;98382.34;8330103;28;20224;-74
2021/01/15 08:23:40;;;;;;;18.77;14.67;;;;;;;2.42;55.83;98378.91;8331331;28;20212;-76
2021/01/15 08:27:45;;;;;;;12.93;11.60;;;;;;;2.62;56.79;98387.34;8328488;28;20224;-75
2021/01/15 08:31:48;;;;;;;19.33;13.03;;;;;;;6.33;72.25;98387.69;8331099;28;20228;-72
2021/01/15 08:35:59;;;;;;;15.83;12.93;;;;;;;5.71;50.06;98397.41;8329931;28;20243;-74
2021/01/15 08:40:00;;;;;;;12.47;11.00;;;;;;;4.33;51.39;98395.22;8329831;28;20323;-75
2021/01/15 08:44:03;;;;;;;11.47;10.30;;;;;;;4.06;52.42;98398.06;8329807;28;20211;-71
2021/01/15 08:48:07;;;;;;;12.87;11.20;;;;;;;3.79;52.97;98403.47;8329970;28;20259;-75
2021/01/15 08:52:11;;;;;;;13.73;11.40;;;;;;;3.51;53.77;98401.19;8329345;28;20276;-75
2021/01/15 08:56:14;;;;;;;13.87;12.30;;;;;;;3.50;53.58;98420.84;8322713;28;20624;-72
2021/01/15 09:00:18;;;;;;;14.53;12.70;;;;;;;3.47;53.77;98427.69;8329109;28;20228;-76
2021/01/15 09:04:24;;;;;;;13.47;12.00;;;;;;;3.68;53.17;98426.66;8328581;28;20197;-74
2021/01/15 09:08:26;;;;;;;15.00;12.47;;;;;;;3.44;53.79;98427.72;8329616;28;20211;-75
2021/01/15 09:12:28;;;;;;;12.17;10.97;;;;;;;3.68;53.77;98435.19;8330060;28;20204;-74
2021/01/15 09:16:30;;;;;;;12.03;10.53;;;;;;;3.77;53.74;98444.50;8330071;28;20215;-74
2021/01/15 09:20:33;;;;;;;11.63;9.17;;;;;;;3.77;52.98;98441.94;8330447;28;20240;-75
2021/01/15 09:24:36;;;;;;;11.53;9.00;;;;;;;3.81;52.61;98440.19;8331922;28;20372;-77
2021/01/15 09:28:38;;;;;;;9.83;8.73;;;;;;;3.80;52.48;98443.63;8325986;28;20209;-74
2021/01/15 09:32:42;;;;;;;10.33;9.23;;;;;;;3.81;52.55;98456.44;8329196;28;20674;-73
2021/01/15 09:36:47;;;;;;;12.20;9.20;;;;;;;3.89;52.50;98458.91;8329564;28;20201;-76
2021/01/15 09:40:49;;;;;;;10.33;9.30;;;;;;;3.81;52.84;98464.13;8327481;28;20232;-75
2021/01/15 09:44:50;;;;;;;10.53;9.30;;;;;;;3.82;52.97;98472.63;8325372;28;20234;-76
2021/01/15 09:48:54;;;;;;;10.60;9.07;;;;;;;3.92;52.73;98471.69;8330181;28;20208;-64
2021/01/15 09:52:56;;;;;;;12.60;9.80;;;;;;;3.96;52.53;98480.19;8329044;28;20212;-64
2021/01/15 09:56:58;;;;;;;10.77;9.30;;;;;;;4.14;52.32;98481.75;8330858;28;20224;-64
2021/01/15 10:01:00;;;;;;;14.10;10.13;;;;;;;4.15;52.71;98491.97;8329160;28;20200;-65
2021/01/15 10:05:02;;;;;;;13.40;10.07;;;;;;;4.03;52.34;98486.97;8330242;28;20266;-65
2021/01/15 10:09:05;;;;;;;14.70;10.33;;;;;;;4.16;52.51;98488.53;8329819;28;20204;-64
2021/01/15 10:13:07;;;;;;;9.50;8.20;;;;;;;4.34;52.33;98492.63;8328940;28;20205;-64
2021/01/15 10:17:09;;;;;;;9.67;8.53;;;;;;;4.35;52.21;98488.34;8330393;28;20235;-65
2021/01/15 10:21:24;;;;;;;11.03;9.43;;;;;;;4.35;52.31;98489.19;8327981;28;20660;-64
2021/01/15 10:25:27;;;;;;;11.07;9.27;;;;;;;4.34;52.64;98481.50;8329550;28;20204;-68
2021/01/15 10:29:29;;;;;;;10.37;9.27;;;;;;;4.47;52.43;98489.06;8326774;28;20216;-68
2021/01/15 10:33:30;;;;;;;11.23;9.07;;;;;;;4.56;51.92;98482.97;8328404;28;20247;-68
2021/01/15 10:37:35;;;;;;;9.50;8.53;;;;;;;4.58;52.21;98478.66;8328778;28;20223;-69
2021/01/15 10:41:39;;;;;;;10.70;9.53;;;;;;;4.27;52.07;98481.59;8328127;28;20213;-71
2021/01/15 10:45:41;;;;;;;10.77;9.67;;;;;;;4.61;51.82;98475.25;8328730;28;20223;-71
2021/01/15 10:49:42;;;;;;;14.63;10.97;;;;;;;4.56;52.09;98471.88;8328619;28;20560;-70
2021/01/15 10:53:44;;;;;;;13.57;11.67;;;;;;;4.50;52.23;98473.63;8328709;28;20207;-70
2021/01/15 10:57:47;;;;;;;13.23;10.70;;;;;;;4.73;51.73;98472.50;8328518;28;20228;-70
2021/01/15 11:01:51;;;;;;;12.37;10.53;;;;;;;4.57;51.69;98466.72;8330561;28;20204;-70
2021/01/15 11:05:53;;;;;;;12.17;10.87;;;;;;;4.63;51.81;98465.81;8334132;28;20230;-70
2021/01/15 11:09:54;;;;;;;11.23;10.13;;;;;;;4.73;51.82;98469.09;8334333;28;20652;-70
2021/01/15 11:13:57;;;;;;;11.57;10.10;;;;;;;4.74;52.03;98474.22;8334510;28;20205;-70
2021/01/15 11:17:59;;;;;;;11.87;9.53;;;;;;;4.82;51.80;98479.25;8333313;28;20531;-70
2021/01/15 11:22:01;;;;;;;12.80;11.43;;;;;;;4.72;51.96;98482.78;8334140;28;20200;-70
2021/01/15 11:26:03;;;;;;;12.50;11.10;;;;;;;4.74;52.00;98489.59;8333680;28;20206;-68
2021/01/15 11:30:08;;;;;;;13.97;12.00;;;;;;;4.65;51.78;98490.56;8333379;28;20213;-69
2021/01/15 11:34:10;;;;;;;11.70;10.50;;;;;;;4.90;52.05;98478.25;8332665;28;20228;-69
2021/01/15 11:38:12;;;;;;;13.10;10.20;;;;;;;4.68;51.49;98479.41;8333944;28;20232;-70
2021/01/15 11:42:15;;;;;;;12.53;11.20;;;;;;;4.78;51.94;98473.31;8333377;28;20208;-71
2021/01/15 11:46:18;;;;;;;12.80;11.40;;;;;;;4.76;51.72;98467.34;8332633;28;20196;-71
2021/01/15 11:50:25;;;;;;;12.23;10.70;;;;;;;4.67;51.53;98473.44;8332557;28;20196;-71
2021/01/15 11:54:31;;;;;;;11.70;10.40;;;;;;;4.88;51.81;98469.72;8335358;28;20232;-71
2021/01/15 11:58:33;;;;;;;10.80;9.70;;;;;;;4.97;52.06;98473.03;8333460;28;20235;-68
2021/01/15 12:02:35;;;;;;;19.40;12.83;;;;;;;4.93;51.86;98471.38;8333444;28;20200;-68
2021/01/15 12:06:37;;;;;;;14.90;12.10;;;;;;;5.00;52.21;98463.56;8333134;28;20589;-69
2021/01/15 12:10:39;;;;;;;11.70;10.50;;;;;;;5.08;52.07;98466.91;8332408;28;20212;-69
2021/01/15 12:14:40;;;;;;;11.23;9.97;;;;;;;5.07;51.88;98472.06;8332128;28;20744;-69
2021/01/15 12:18:43;;;;;;;13.27;10.10;;;;;;;5.03;52.18;98467.84;8332520;28;20231;-67
2021/01/15 12:22:45;;;;;;;11.57;10.30;;;;;;;4.91;52.11;98466.25;8329632;28;20482;-68
2021/01/15 12:26:49;;;;;;;11.57;9.80;;;;;;;5.08;51.91;98471.16;8331756;28;20197;-68
2021/01/15 12:30:55;;;;;;;11.47;10.20;;;;;;;5.06;52.24;98471.22;8330523;28;20216;-68
2021/01/15 12:34:58;;;;;;;10.40;9.30;;;;;;;5.17;52.34;98465.06;8331650;28;20287;-69
2021/01/15 12:39:00;;;;;;;9.43;8.53;;;;;;;5.15;52.33;98461.69;8329960;28;20224;-69
2021/01/15 12:43:03;;;;;;;10.10;8.90;;;;;;;5.01;52.85;98469.59;8329553;28;20628;-69
2021/01/15 12:47:04;;;;;;;10.33;9.33;;;;;;;4.98;53.17;98472.19;8329486;28;20204;-69
2021/01/15 12:51:08;;;;;;;14.80;10.30;;;;;;;4.84;53.11;98469.81;8329433;28;20204;-70
2021/01/15 12:55:10;;;;;;;10.20;9.20;;;;;;;4.98;53.87;98474.75;8330628;28;20208;-69
2021/01/15 12:59:12;;;;;;;9.27;8.33;;;;;;;4.91;53.53;98466.25;8330600;28;20274;-71
2021/01/15 13:03:14;;;;;;;10.67;8.30;;;;;;;4.81;54.03;98473.25;8331057;28;20220;-67
2021/01/15 13:07:16;;;;;;;9.30;8.30;;;;;;;4.89;54.19;98470.56;8331460;28;20288;-67
2021/01/15 13:11:18;;;;;;;8.40;7.50;;;;;;;4.90;54.17;98464.59;8330705;28;20212;-67
2021/01/15 13:15:33;;;;;;;7.50;6.80;;;;;;;4.79;53.97;98459.59;8330861;28;20514;-68
2021/01/15 13:19:35;;;;;;;7.37;6.60;;;;;;;4.99;53.80;98468.72;8330538;28;20585;-68
2021/01/15 13:23:37;;;;;;;7.63;6.93;;;;;;;4.77;53.76;98465.63;8330991;28;20254;-68
2021/01/15 13:27:43;;;;;;;7.20;6.50;;;;;;;4.81;53.87;98474.97;8330115;28;20309;-67
2021/01/15 13:31:45;;;;;;;11.63;8.03;;;;;;;4.60;54.55;98473.53;8330179;28;20244;-67
2021/01/15 13:35:49;;;;;;;7.30;6.60;;;;;;;4.88;53.94;98481.72;8328531;28;20296;-68
2021/01/15 13:39:52;;;;;;;7.60;6.77;;;;;;;4.97;53.97;98478.16;8328462;28;20220;-66
2021/01/15 13:43:53;;;;;;;7.23;6.47;;;;;;;4.65;53.41;98493.13;8328534;28;20550;-67
2021/01/15 13:47:55;;;;;;;10.13;7.80;;;;;;;4.73;53.06;98487.91;8328495;28;20214;-66
2021/01/15 13:51:59;;;;;;;9.47;7.20;;;;;;;4.82;53.45;98492.91;8327755;28;20250;-67
2021/01/15 13:56:05;;;;;;;6.57;5.93;;;;;;;4.53;53.73;98508.66;8327492;28;20215;-68
2021/01/15 14:00:08;;;;;;;7.37;6.47;;;;;;;4.68;53.61;98508.50;8328685;28;20278;-66
2021/01/15 14:04:10;;;;;;;7.50;5.73;;;;;;;4.76;53.52;98508.41;8326263;28;20204;-66
2021/01/15 14:08:11;;;;;;;7.23;5.63;;;;;;;4.27;53.83;98514.06;8329459;28;20350;-66
2021/01/15 14:12:14;;;;;;;8.17;6.37;;;;;;;4.33;54.08;98519.13;8333202;28;20211;-65
2021/01/15 14:16:19;;;;;;;6.97;5.90;;;;;;;4.33;54.14;98521.69;8332029;28;20726;-65
2021/01/15 14:20:22;;;;;;;6.47;5.83;;;;;;;3.80;55.55;98529.00;8331659;28;20232;-65
2021/01/15 14:24:24;;;;;;;6.53;5.83;;;;;;;4.10;54.84;98532.19;8329124;28;20200;-68
2021/01/15 14:28:27;;;;;;;7.70;6.33;;;;;;;4.06;54.48;98535.66;8329750;28;20216;-70
2021/01/15 14:32:28;;;;;;;6.93;6.23;;;;;;;4.18;54.83;98532.94;8329201;28;20276;-71
2021/01/15 14:36:37;;;;;;;7.33;6.63;;;;;;;4.30;54.32;98537.97;8330247;28;20491;-70
2021/01/15 14:40:41;;;;;;;7.97;6.90;;;;;;;4.31;54.20;98537.09;8335385;28;20256;-72
2021/01/15 14:44:47;;;;;;;7.30;6.60;;;;;;;4.38;53.92;98543.03;8334911;28;20613;-71
2021/01/15 14:48:50;;;;;;;8.90;7.97;;;;;;;4.17;54.36;98541.53;8333341;28;20242;-71
2021/01/15 14:52:52;;;;;;;7.43;6.60;;;;;;;4.32;54.18;98545.63;8334596;28;20211;-72
2021/01/15 14:56:57;;;;;;;11.13;7.37;;;;;;;4.42;54.20;98556.66;8335048;28;20196;-71
2021/01/15 15:01:00;;;;;;;10.10;8.20;;;;;;;4.48;53.92;98556.59;8335512;28;20216;-72
2021/01/15 15:05:02;;;;;;;14.60;11.30;;;;;;;4.40;54.10;98566.06;8328464;28;20655;-72
2021/01/15 15:09:05;;;;;;;9.53;8.53;;;;;;;4.46;54.15;98573.72;8332389;28;20196;-72
2021/01/15 15:13:07;;;;;;;8.90;8.00;;;;;;;4.30;54.59;98576.44;8332775;28;20203;-72
2021/01/15 15:17:09;;;;;;;7.90;6.67;;;;;;;4.37;54.34;98582.34;8332285;28;20192;-72
2021/01/15 15:21:20;;;;;;;9.30;7.00;;;;;;;4.26;54.62;98587.56;8333020;28;20201;-71
2021/01/15 15:25:25;;;;;;;7.63;6.87;;;;;;;4.25;54.90;98585.03;8330609;28;20192;-72
2021/01/15 15:29:30;;;;;;;7.63;6.70;;;;;;;4.15;54.95;98583.41;8329694;28;20792;-73
2021/01/15 15:33:33;;;;;;;7.57;6.87;;;;;;;4.30;54.49;98584.13;8330409;28;20236;-70
2021/01/15 15:37:36;;;;;;;10.07;9.15;;;;;;;4.38;54.34;98596.88;8332722;28;20587;-73
2021/01/15 15:41:37;;;;;;;8.70;7.70;;;;;;;4.33;54.87;98597.78;8329877;28;20204;-72
2021/01/15 15:45:39;;;;;;;8.83;7.90;;;;;;;4.35;54.46;98594.34;8329456;28;20215;-73
2021/01/15 15:49:42;;;;;;;7.80;6.90;;;;;;;4.25;54.73;98591.00;8327282;28;20200;-72
2021/01/15 15:53:45;;;;;;;8.37;7.47;;;;;;;4.39;54.88;98596.00;8328818;28;20197;-71
2021/01/15 15:57:48;;;;;;;10.07;9.15;;;;;;;4.97;52.97;98607.38;8328914;28;20529;-71
2021/01/15 16:01:50;;;;;;;8.70;7.90;;;;;;;4.47;55.00;98613.88;8332079;28;20208;-71
2021/01/15 16:05:53;;;;;;;11.60;9.90;;;;;;;4.38;55.18;98617.41;8332059;28;20713;-71
2021/01/15 16:09:55;;;;;;;11.67;10.20;;;;;;;4.32;55.57;98627.69;8332074;28;20204;-71
2021/01/15 16:13:57;;;;;;;9.53;8.63;;;;;;;4.33;55.60;98629.41;8328479;28;20230;-71
2021/01/15 16:17:58;;;;;;;9.97;8.97;;;;;;;4.36;55.50;98629.38;8328579;28;20223;-71
2021/01/15 16:22:01;;;;;;;8.80;7.90;;;;;;;4.19;55.81;98632.09;8326551;28;20576;-71
2021/01/15 16:26:03;;;;;;;9.67;8.60;;;;;;;4.14;56.20;98641.53;8330208;28;20200;-72
2021/01/15 16:30:06;;;;;;;9.57;8.57;;;;;;;4.01;56.40;98635.63;8331371;28;20205;-70
2021/01/15 16:34:08;;;;;;;10.83;9.03;;;;;;;4.05;56.25;98642.44;8331022;28;20276;-69
2021/01/15 16:38:24;;;;;;;11.57;9.80;;;;;;;3.95;56.33;98653.63;8331204;28;20251;-70
2021/01/15 16:42:26;;;;;;;9.77;8.77;;;;;;;4.00;55.45;98662.13;8298911;28;20208;-70
2021/01/15 16:46:28;;;;;;;9.20;8.30;;;;;;;4.17;55.44;98658.56;8298583;28;20223;-70
2021/01/15 16:50:30;;;;;;;9.53;8.63;;;;;;;4.24;54.95;98660.25;8298668;28;20241;-70
2021/01/15 16:54:33;;;;;;;9.80;8.80;;;;;;;4.01;55.67;98656.13;8298251;28;20288;-70
2021/01/15 16:58:35;;;;;;;12.27;8.47;;;;;;;4.01;55.30;98658.69;8297374;28;20295;-71
2021/01/15 17:02:37;;;;;;;10.40;8.23;;;;;;;4.14;55.44;98667.16;8301255;28;20196;-72
2021/01/15 17:06:39;;;;;;;12.53;9.90;;;;;;;4.14;55.46;98671.44;8330150;28;20201;-70
2021/01/15 17:10:42;;;;;;;15.43;12.23;;;;;;;4.14;55.34;98664.59;8331498;28;20602;-70
2021/01/15 17:14:44;;;;;;;14.83;11.97;;;;;;;4.14;55.66;98674.84;8330152;28;20197;-72
2021/01/15 17:18:46;;;;;;;14.93;12.67;;;;;;;4.02;55.54;98677.50;8330444;28;20232;-71
2021/01/15 17:22:47;;;;;;;14.97;12.93;;;;;;;4.08;55.39;98674.91;8330569;28;20204;-72
2021/01/15 17:26:50;;;;;;;18.10;14.37;;;;;;;4.08;55.68;98675.75;8329792;28;20651;-72
2021/01/15 17:30:52;;;;;;;19.43;14.90;;;;;;;4.12;55.46;98684.25;8326424;28;20232;-72
2021/01/15 17:34:53;;;;;;;22.90;14.77;;;;;;;4.03;55.36;98680.03;8326418;28;20288;-71
2021/01/15 17:38:55;;;;;;;15.10;11.33;;;;;;;4.01;55.16;98686.88;8327225;28;20223;-71
2021/01/15 17:42:58;;;;;;;12.70;10.70;;;;;;;4.05;55.38;98687.72;8327683;28;20212;-74
2021/01/15 17:46:59;;;;;;;19.53;13.97;;;;;;;3.97;55.41;98703.16;8327745;28;20550;-72
2021/01/15 17:51:02;;;;;;;17.93;14.07;;;;;;;3.88;55.48;98700.63;8329371;28;20254;-71
2021/01/15 17:55:04;;;;;;;16.90;13.40;;;;;;;4.03;55.07;98709.94;8329443;28;20531;-71
2021/01/15 17:59:10;;;;;;;19.97;15.03;;;;;;;4.04;55.15;98709.09;8328583;28;20224;-72
2021/01/15 18:03:13;;;;;;;24.47;17.93;;;;;;;4.00;55.38;98699.69;8330304;28;20258;-71
2021/01/15 18:07:15;;;;;;;14.90;12.10;;;;;;;3.92;55.24;98699.75;8329797;28;20283;-72
2021/01/15 18:11:17;;;;;;;11.07;9.87;;;;;;;3.96;55.54;98710.84;8329063;28;20207;-72
2021/01/15 18:15:22;;;;;;;10.60;9.50;;;;;;;3.97;55.51;98715.97;8329955;28;20211;-72
2021/01/15 18:19:24;;;;;;;11.67;10.33;;;;;;;3.87;55.51;98720.28;8329072;28;20228;-72
2021/01/15 18:23:26;;;;;;;11.90;10.70;;;;;;;3.86;55.86;98718.56;8329996;28;20201;-72
2021/01/15 18:27:31;;;;;;;13.10;11.43;;;;;;;3.79;55.58;98716.06;8329830;28;20254;-72
2021/01/15 18:31:35;;;;;;;10.63;9.53;;;;;;;3.94;56.16;98717.69;8327394;28;20321;-72
2021/01/15 18:35:37;;;;;;;11.27;9.73;;;;;;;3.82;55.89;98721.19;8327887;28;20258;-71
2021/01/15 18:39:39;;;;;;;12.63;10.43;;;;;;;3.90;55.88;98727.97;8326935;28;20231;-71
2021/01/15 18:43:41;;;;;;;11.80;10.60;;;;;;;3.95;55.62;98735.63;8328631;28;20207;-72
2021/01/15 18:47:45;;;;;;;15.07;12.57;;;;;;;3.90;56.07;98732.22;8327627;28;20201;-72
2021/01/15 18:51:46;;;;;;;17.43;14.47;;;;;;;3.75;56.47;98724.63;8328292;28;20544;-68
2021/01/15 18:55:48;;;;;;;16.23;13.17;;;;;;;4.09;61.33;98733.84;8326264;28;20227;-69
2021/01/15 18:59:50;;;;;;;15.57;13.17;;;;;;;3.86;56.04;98748.47;8329205;28;20232;-72
2021/01/15 19:03:52;;;;;;;14.73;12.70;;;;;;;3.75;56.25;98743.44;8329391;28;20219;-72